Time;durP1;ratioP1;P1;durP2;ratioP2;P2;SDS_P1;SDS_P2;PMS_P1;PMS_P2;Temp;Humidity;BMP_temperature;BMP_pressure;BME280_temperature;BME280_humidity;BME280_pressure;Samples;Min_cycle;Max_cycle;Signal;HPM_P1;HPM_P2
2023/05/07 00:02:16;;;;;;;6.13;5.53;;;;;;;;;;5081821;28;20196;-70
2023/05/07 00:04:43;;;;;;;5.07;4.68;;;;;;;;;;5082266;28;20196;-70
2023/05/07 00:07:10;;;;;;;4.00;3.55;;;;;;;;;;5082023;28;20228;-69
2023/05/07 00:09:38;;;;;;;5.05;3.08;;;;;;;;;;5081794;28;20196;-69
2023/05/07 00:12:04;;;;;;;3.33;3.17;;;;;;;;;;5081838;28;20445;-69
2023/05/07 00:14:30;;;;;;;3.33;3.13;;;;;;;;;;5081878;28;20226;-69
2023/05/07 00:16:56;;;;;;;5.47;4.50;;;;;;;;;;5081623;28;20192;-69
2023/05/07 00:19:23;;;;;;;5.82;4.50;;;;;;;;;;5081904;28;20242;-69
2023/05/07 00:21:49;;;;;;;5.20;4.60;;;;;;;;;;5082129;28;20197;-69
2023/05/07 00:24:15;;;;;;;6.93;4.82;;;;;;;;;;5081572;28;20523;-69
2023/05/07 00:26:43;;;;;;;8.25;5.65;;;;;;;;;;5081555;28;20212;-69
2023/05/07 00:29:09;;;;;;;7.07;6.00;;;;;;;;;;5083245;28;20220;-69
2023/05/07 00:31:35;;;;;;;7.18;5.68;;;;;;;;;;5088728;28;20246;-69
2023/05/07 00:34:01;;;;;;;5.75;5.18;;;;;;;;;;5088422;28;20561;-69
2023/05/07 00:36:28;;;;;;;6.75;5.43;;;;;;;;;;5088554;28;20196;-69
2023/05/07 00:38:55;;;;;;;6.75;5.18;;;;;;;;;;5088381;28;20230;-69
2023/05/07 00:41:22;;;;;;;7.05;4.72;;;;;;;;;;5079977;28;20196;-70
2023/05/07 00:43:51;;;;;;;5.22;4.60;;;;;;;;;;5088262;28;20207;-70
2023/05/07 00:46:17;;;;;;;7.97;5.07;;;;;;;;;;5087876;28;20482;-70
2023/05/07 00:48:43;;;;;;;4.82;4.35;;;;;;;;;;5088429;28;20261;-70
2023/05/07 00:51:11;;;;;;;4.25;4.00;;;;;;;;;;5088031;28;20211;-70
2023/05/07 00:53:37;;;;;;;6.10;4.53;;;;;;;;;;5088076;28;20191;-70
2023/05/07 00:56:04;;;;;;;4.38;4.00;;;;;;;;;;5087873;28;20245;-70
2023/05/07 00:58:31;;;;;;;4.25;3.90;;;;;;;;;;5088080;28;20230;-70
2023/05/07 01:00:59;;;;;;;5.13;4.10;;;;;;;;;;5087690;28;20505;-70
2023/05/07 01:03:25;;;;;;;6.47;3.88;;;;;;;;;;5088252;28;20200;-70
2023/05/07 01:05:53;;;;;;;4.80;3.63;;;;;;;;;;5088097;28;20223;-70
2023/05/07 01:08:20;;;;;;;3.97;3.67;;;;;;;;;;5087787;28;20196;-70
2023/05/07 01:10:46;;;;;;;4.35;3.60;;;;;;;;;;5087722;28;20431;-70
2023/05/07 01:13:13;;;;;;;3.92;3.63;;;;;;;;;;5088143;28;20246;-70
2023/05/07 01:15:40;;;;;;;3.65;3.40;;;;;;;;;;5088063;28;20214;-70
2023/05/07 01:18:08;;;;;;;3.35;3.15;;;;;;;;;;5087474;28;20219;-70
2023/05/07 01:20:34;;;;;;;5.72;3.45;;;;;;;;;;5087499;28;20219;-70
2023/05/07 01:23:03;;;;;;;4.65;3.08;;;;;;;;;;5087963;28;20247;-70
2023/05/07 01:25:30;;;;;;;3.97;2.88;;;;;;;;;;5087725;28;20192;-70
2023/05/07 01:27:56;;;;;;;4.65;2.90;;;;;;;;;;5087707;28;20216;-70
2023/05/07 01:30:23;;;;;;;4.68;2.90;;;;;;;;;;5087607;28;20201;-70
2023/05/07 01:32:51;;;;;;;3.08;2.85;;;;;;;;;;5087695;28;20197;-70
2023/05/07 01:35:19;;;;;;;4.80;3.13;;;;;;;;;;5087561;28;20437;-70
2023/05/07 01:37:46;;;;;;;2.78;2.58;;;;;;;;;;5087868;28;20245;-70
2023/05/07 01:40:14;;;;;;;2.88;2.70;;;;;;;;;;5086561;28;20219;-70
2023/05/07 01:42:41;;;;;;;3.35;2.80;;;;;;;;;;5084185;28;20196;-70
2023/05/07 01:45:07;;;;;;;2.65;2.55;;;;;;;;;;5084464;28;20200;-70
2023/05/07 01:47:34;;;;;;;4.70;2.45;;;;;;;;;;5084759;28;20460;-70
2023/05/07 01:50:00;;;;;;;4.00;2.58;;;;;;;;;;5084062;28;20239;-70
2023/05/07 01:52:28;;;;;;;2.30;2.20;;;;;;;;;;5084418;28;20253;-70
2023/05/07 01:54:54;;;;;;;2.95;2.75;;;;;;;;;;5084394;28;20238;-70
2023/05/07 01:57:22;;;;;;;3.13;2.92;;;;;;;;;;5084334;28;20200;-70
2023/05/07 01:59:48;;;;;;;3.20;2.90;;;;;;;;;;5083960;28;20201;-70
2023/05/07 02:02:15;;;;;;;4.18;3.35;;;;;;;;;;5084084;28;20204;-70
2023/05/07 02:04:41;;;;;;;3.30;3.10;;;;;;;;;;5084280;28;20211;-70
2023/05/07 02:07:07;;;;;;;4.20;3.80;;;;;;;;;;5083968;28;20216;-70
2023/05/07 02:09:33;;;;;;;3.35;3.15;;;;;;;;;;5083925;28;20196;-70
2023/05/07 02:12:00;;;;;;;4.18;3.78;;;;;;;;;;5084108;28;20500;-70
2023/05/07 02:14:27;;;;;;;3.67;3.38;;;;;;;;;;5075828;28;20232;-70
2023/05/07 02:16:54;;;;;;;4.90;3.60;;;;;;;;;;5083768;28;20193;-70
2023/05/07 02:19:21;;;;;;;3.47;3.25;;;;;;;;;;5083828;28;20234;-70
2023/05/07 02:21:47;;;;;;;11.00;3.55;;;;;;;;;;5083906;28;20450;-70
2023/05/07 02:24:13;;;;;;;6.10;3.50;;;;;;;;;;5083994;28;20511;-70
2023/05/07 02:26:40;;;;;;;5.68;3.78;;;;;;;;;;5083767;28;20220;-70
2023/05/07 02:29:06;;;;;;;4.03;3.72;;;;;;;;;;5083298;28;20246;-70
2023/05/07 02:31:34;;;;;;;3.67;3.47;;;;;;;;;;5083419;28;20242;-70
2023/05/07 02:34:00;;;;;;;3.67;3.40;;;;;;;;;;5083676;28;20208;-70
2023/05/07 02:36:27;;;;;;;5.32;3.60;;;;;;;;;;5083541;28;20193;-70
2023/05/07 02:38:53;;;;;;;3.58;3.22;;;;;;;;;;5083710;28;20395;-70
2023/05/07 02:41:20;;;;;;;3.53;3.22;;;;;;;;;;5083110;28;20558;-70
2023/05/07 02:43:46;;;;;;;4.20;3.20;;;;;;;;;;5083309;28;20523;-70
2023/05/07 02:46:12;;;;;;;4.68;3.30;;;;;;;;;;5083137;28;20266;-70
2023/05/07 02:48:40;;;;;;;3.35;3.05;;;;;;;;;;5083415;28;20492;-70
2023/05/07 02:51:06;;;;;;;3.05;2.85;;;;;;;;;;5083083;28;20504;-70
2023/05/07 02:53:32;;;;;;;3.40;3.05;;;;;;;;;;5082989;28;20550;-70
2023/05/07 02:55:59;;;;;;;3.40;2.90;;;;;;;;;;5083049;28;20192;-70
2023/05/07 02:58:26;;;;;;;3.28;3.08;;;;;;;;;;5082794;28;20265;-70
2023/05/07 03:00:54;;;;;;;3.83;3.40;;;;;;;;;;5083233;28;20200;-70
2023/05/07 03:03:20;;;;;;;3.15;3.05;;;;;;;;;;5082867;28;20204;-71
2023/05/07 03:05:48;;;;;;;3.92;3.40;;;;;;;;;;5082882;28;20197;-70
2023/05/07 03:08:14;;;;;;;3.75;3.45;;;;;;;;;;5082843;28;20300;-70
2023/05/07 03:10:40;;;;;;;4.28;3.53;;;;;;;;;;5082811;28;20226;-70
2023/05/07 03:13:07;;;;;;;4.28;3.60;;;;;;;;;;5082580;28;20258;-70
2023/05/07 03:15:33;;;;;;;6.38;3.53;;;;;;;;;;5083082;28;20197;-70
2023/05/07 03:17:59;;;;;;;5.07;2.85;;;;;;;;;;5082792;28;20196;-70
2023/05/07 03:20:25;;;;;;;3.80;3.50;;;;;;;;;;5082457;28;20200;-70
2023/05/07 03:22:53;;;;;;;6.97;3.30;;;;;;;;;;5082664;28;20430;-70
2023/05/07 03:25:19;;;;;;;3.03;2.75;;;;;;;;;;5082378;28;20204;-70
2023/05/07 03:27:45;;;;;;;3.60;3.10;;;;;;;;;;5082295;28;20216;-70
2023/05/07 03:30:12;;;;;;;3.03;2.85;;;;;;;;;;5082309;28;20200;-70
2023/05/07 03:32:39;;;;;;;3.17;2.75;;;;;;;;;;5082370;28;20196;-70
2023/05/07 03:35:05;;;;;;;4.88;3.10;;;;;;;;;;5082268;28;20432;-70
2023/05/07 03:37:32;;;;;;;3.40;3.10;;;;;;;;;;5082339;28;20192;-70
2023/05/07 03:39:59;;;;;;;4.78;3.40;;;;;;;;;;5082115;28;20200;-70
2023/05/07 03:42:25;;;;;;;3.97;3.72;;;;;;;;;;5082286;28;20205;-70
2023/05/07 03:44:52;;;;;;;3.78;3.35;;;;;;;;;;5082351;28;20242;-70
2023/05/07 03:47:18;;;;;;;3.65;3.35;;;;;;;;;;5082290;28;20220;-70
2023/05/07 03:49:44;;;;;;;3.65;3.35;;;;;;;;;;5082246;28;20515;-70
2023/05/07 03:52:10;;;;;;;3.40;3.20;;;;;;;;;;5082048;28;20235;-70
2023/05/07 03:54:37;;;;;;;4.20;2.85;;;;;;;;;;5081998;28;20253;-70
2023/05/07 03:57:05;;;;;;;3.50;3.20;;;;;;;;;;5082204;28;20201;-70
2023/05/07 03:59:31;;;;;;;2.83;2.70;;;;;;;;;;5081674;28;20263;-70
2023/05/07 04:01:57;;;;;;;3.10;2.90;;;;;;;;;;5081953;28;20197;-70
2023/05/07 04:04:23;;;;;;;3.28;3.13;;;;;;;;;;5081369;28;20238;-70
2023/05/07 04:06:50;;;;;;;3.42;3.08;;;;;;;;;;5081808;28;20250;-70
2023/05/07 04:09:16;;;;;;;5.30;2.90;;;;;;;;;;5081534;28;20268;-70
2023/05/07 04:11:42;;;;;;;2.78;2.65;;;;;;;;;;5081929;28;20197;-70
2023/05/07 04:14:10;;;;;;;3.40;2.60;;;;;;;;;;5081644;28;20609;-70
2023/05/07 04:16:36;;;;;;;4.40;2.67;;;;;;;;;;5082026;28;20192;-71
2023/05/07 04:19:02;;;;;;;3.35;3.22;;;;;;;;;;5081857;28;20254;-71
2023/05/07 04:21:28;;;;;;;3.10;2.90;;;;;;;;;;5081629;28;20218;-71
2023/05/07 04:23:55;;;;;;;2.78;2.58;;;;;;;;;;5081938;28;20196;-71
2023/05/07 04:26:23;;;;;;;3.88;3.40;;;;;;;;;;5081915;28;20245;-71
2023/05/07 04:28:49;;;;;;;3.60;2.90;;;;;;;;;;5081906;28;20223;-71
2023/05/07 04:31:16;;;;;;;3.15;2.92;;;;;;;;;;5081450;28;20524;-71
2023/05/07 04:33:43;;;;;;;3.38;3.00;;;;;;;;;;5081793;28;20258;-71
2023/05/07 04:36:09;;;;;;;2.88;2.67;;;;;;;;;;5081494;28;20205;-71
2023/05/07 04:38:35;;;;;;;4.10;2.90;;;;;;;;;;5081541;28;20196;-71
2023/05/07 04:41:03;;;;;;;3.58;3.22;;;;;;;;;;5081396;28;20271;-71
2023/05/07 04:43:30;;;;;;;3.20;2.90;;;;;;;;;;5081634;28;20233;-71
2023/05/07 04:45:56;;;;;;;3.22;3.03;;;;;;;;;;5081614;28;20238;-71
2023/05/07 04:48:24;;;;;;;3.15;2.92;;;;;;;;;;5081396;28;20270;-71
2023/05/07 04:50:50;;;;;;;3.13;2.92;;;;;;;;;;5081218;28;20200;-71
2023/05/07 04:53:17;;;;;;;3.00;2.75;;;;;;;;;;5081648;28;20201;-71
2023/05/07 04:55:43;;;;;;;2.97;2.45;;;;;;;;;;5081538;28;20204;-71
2023/05/07 04:58:09;;;;;;;3.20;2.45;;;;;;;;;;5081517;28;20204;-71
2023/05/07 05:00:35;;;;;;;3.10;2.42;;;;;;;;;;5072979;28;20196;-72
2023/05/07 05:03:02;;;;;;;2.53;2.40;;;;;;;;;;5081357;28;20250;-71
2023/05/07 05:05:29;;;;;;;2.38;2.28;;;;;;;;;;5081259;28;20254;-71
2023/05/07 05:07:55;;;;;;;2.50;2.40;;;;;;;;;;5081301;28;20329;-71
2023/05/07 05:10:22;;;;;;;2.70;2.50;;;;;;;;;;5080995;28;20238;-71
2023/05/07 05:12:49;;;;;;;2.60;2.40;;;;;;;;;;5081240;28;20196;-71
2023/05/07 05:15:15;;;;;;;2.80;2.67;;;;;;;;;;5081322;28;20208;-71
2023/05/07 05:17:41;;;;;;;4.63;2.88;;;;;;;;;;5084306;28;20208;-71
2023/05/07 05:20:09;;;;;;;3.90;2.40;;;;;;;;;;5084616;28;20254;-71
2023/05/07 05:22:37;;;;;;;2.97;2.53;;;;;;;;;;5084980;28;20196;-71
2023/05/07 05:25:03;;;;;;;2.15;2.13;;;;;;;;;;5085181;28;20565;-71
2023/05/07 05:27:30;;;;;;;3.03;2.90;;;;;;;;;;5084792;28;20224;-71
2023/05/07 05:29:56;;;;;;;4.68;3.35;;;;;;;;;;5084763;28;20200;-71
2023/05/07 05:32:22;;;;;;;3.65;2.90;;;;;;;;;;5084575;28;20200;-71
2023/05/07 05:34:49;;;;;;;3.33;3.13;;;;;;;;;;5084900;28;20246;-71
2023/05/07 05:37:15;;;;;;;3.17;3.05;;;;;;;;;;5084744;28;20523;-71
2023/05/07 05:39:43;;;;;;;3.65;3.47;;;;;;;;;;5084492;28;20310;-72
2023/05/07 05:42:09;;;;;;;3.40;3.10;;;;;;;;;;5084697;28;20216;-72
2023/05/07 05:44:35;;;;;;;3.85;3.60;;;;;;;;;;5084616;28;20247;-71
2023/05/07 05:47:02;;;;;;;5.43;3.50;;;;;;;;;;5084326;28;20445;-71
2023/05/07 05:49:28;;;;;;;4.45;4.05;;;;;;;;;;5084076;28;20253;-72
2023/05/07 05:51:55;;;;;;;4.28;3.90;;;;;;;;;;5084626;28;20437;-71
2023/05/07 05:54:21;;;;;;;3.70;3.50;;;;;;;;;;5084814;28;20625;-71
2023/05/07 05:56:49;;;;;;;3.63;3.42;;;;;;;;;;5084386;28;20396;-71
2023/05/07 05:59:16;;;;;;;4.65;3.88;;;;;;;;;;5084202;28;20223;-71
2023/05/07 06:01:42;;;;;;;4.25;3.70;;;;;;;;;;5084206;28;20196;-71
2023/05/07 06:04:08;;;;;;;3.90;3.63;;;;;;;;;;5084482;28;20272;-71
2023/05/07 06:06:34;;;;;;;6.75;3.80;;;;;;;;;;5083777;28;20197;-71
2023/05/07 06:09:01;;;;;;;4.10;3.70;;;;;;;;;;5084432;28;20216;-71
2023/05/07 06:11:27;;;;;;;5.50;3.60;;;;;;;;;;5083837;28;20204;-71
2023/05/07 06:13:55;;;;;;;4.22;3.22;;;;;;;;;;5084302;28;20245;-71
2023/05/07 06:16:21;;;;;;;3.53;3.22;;;;;;;;;;5084391;28;20204;-71
2023/05/07 06:18:48;;;;;;;3.47;3.28;;;;;;;;;;5084273;28;20392;-71
2023/05/07 06:21:14;;;;;;;3.45;3.25;;;;;;;;;;5083972;28;20516;-71
2023/05/07 06:23:41;;;;;;;3.35;3.05;;;;;;;;;;5084064;28;20613;-71
2023/05/07 06:26:07;;;;;;;3.35;2.88;;;;;;;;;;5084106;28;20496;-71
2023/05/07 06:28:35;;;;;;;3.72;3.00;;;;;;;;;;5083112;28;20535;-71
2023/05/07 06:31:13;;;;;;;3.58;2.80;;;;;;;;;;5083646;28;20208;-71
2023/05/07 06:33:39;;;;;;;2.80;2.60;;;;;;;;;;5084011;28;20504;-71
2023/05/07 06:36:06;;;;;;;2.90;2.70;;;;;;;;;;5084046;28;20200;-71
2023/05/07 06:38:32;;;;;;;3.17;2.85;;;;;;;;;;5083603;28;20238;-71
2023/05/07 06:40:58;;;;;;;4.95;2.83;;;;;;;;;;5083596;28;20242;-71
2023/05/07 06:43:24;;;;;;;3.05;2.85;;;;;;;;;;5083456;28;20200;-71
2023/05/07 06:45:51;;;;;;;6.30;2.90;;;;;;;;;;5084102;28;20201;-71
2023/05/07 06:48:18;;;;;;;2.58;2.42;;;;;;;;;;5083438;28;20216;-71
2023/05/07 06:50:45;;;;;;;2.78;2.63;;;;;;;;;;5083250;28;20200;-71
2023/05/07 06:53:11;;;;;;;2.92;2.75;;;;;;;;;;5083431;28;20231;-71
2023/05/07 06:55:38;;;;;;;2.53;2.40;;;;;;;;;;5083300;28;20234;-71
2023/05/07 06:58:04;;;;;;;2.70;2.50;;;;;;;;;;5083214;28;20259;-71
2023/05/07 07:00:30;;;;;;;3.95;2.50;;;;;;;;;;5083054;28;20262;-71
2023/05/07 07:02:57;;;;;;;3.00;2.80;;;;;;;;;;5083212;28;20197;-71
2023/05/07 07:05:25;;;;;;;3.08;2.88;;;;;;;;;;5083058;28;20200;-71
2023/05/07 07:07:52;;;;;;;3.28;3.08;;;;;;;;;;5082937;28;20434;-71
2023/05/07 07:10:18;;;;;;;4.43;2.90;;;;;;;;;;5082728;28;20254;-71
2023/05/07 07:12:45;;;;;;;3.20;3.00;;;;;;;;;;5083240;28;20196;-71
2023/05/07 07:15:11;;;;;;;8.48;2.60;;;;;;;;;;5082842;28;20204;-71
2023/05/07 07:17:37;;;;;;;3.72;2.90;;;;;;;;;;5082821;28;20310;-71
2023/05/07 07:20:04;;;;;;;3.10;2.28;;;;;;;;;;5082916;28;20200;-71
2023/05/07 07:22:32;;;;;;;2.97;2.80;;;;;;;;;;5082805;28;20204;-71
2023/05/07 07:24:58;;;;;;;3.25;2.30;;;;;;;;;;5082625;28;20200;-71
2023/05/07 07:27:24;;;;;;;7.18;2.67;;;;;;;;;;5082621;28;20228;-71
2023/05/07 07:29:50;;;;;;;2.78;2.67;;;;;;;;;;5082725;28;20205;-71
2023/05/07 07:32:17;;;;;;;7.05;2.58;;;;;;;;;;5082824;28;20204;-71
2023/05/07 07:34:43;;;;;;;2.40;2.20;;;;;;;;;;5083011;28;20197;-71
2023/05/07 07:37:09;;;;;;;3.42;2.50;;;;;;;;;;5082627;28;20230;-71
2023/05/07 07:39:37;;;;;;;2.45;2.25;;;;;;;;;;5081231;28;20204;-71
2023/05/07 07:42:03;;;;;;;3.30;2.45;;;;;;;;;;5082525;28;20546;-71
2023/05/07 07:44:30;;;;;;;10.07;6.97;;;;;;;;;;5082559;28;20211;-71
2023/05/07 07:46:56;;;;;;;3.67;3.15;;;;;;;;;;5082662;28;20219;-71
2023/05/07 07:49:23;;;;;;;3.08;2.40;;;;;;;;;;5082196;28;20227;-71
2023/05/07 07:51:49;;;;;;;3.65;2.50;;;;;;;;;;5082338;28;20224;-71
2023/05/07 07:54:16;;;;;;;2.58;2.00;;;;;;;;;;5082807;28;20204;-71
2023/05/07 07:56:43;;;;;;;2.90;2.70;;;;;;;;;;5082660;28;20227;-71
2023/05/07 07:59:10;;;;;;;3.10;2.60;;;;;;;;;;5082352;28;20236;-71
2023/05/07 08:01:36;;;;;;;2.60;2.40;;;;;;;;;;5082264;28;20200;-71
2023/05/07 08:04:03;;;;;;;2.90;2.70;;;;;;;;;;5082268;28;20200;-71
2023/05/07 08:06:29;;;;;;;2.85;2.30;;;;;;;;;;5082004;28;20567;-71
2023/05/07 08:08:55;;;;;;;5.18;2.60;;;;;;;;;;5081890;28;20219;-71
2023/05/07 08:11:22;;;;;;;2.55;2.35;;;;;;;;;;5081905;28;20207;-71
2023/05/07 08:13:50;;;;;;;2.47;2.28;;;;;;;;;;5082092;28;20227;-71
2023/05/07 08:16:16;;;;;;;5.97;2.70;;;;;;;;;;5082047;28;20426;-71
2023/05/07 08:18:42;;;;;;;2.63;2.53;;;;;;;;;;5081993;28;20197;-71
2023/05/07 08:21:09;;;;;;;2.67;2.20;;;;;;;;;;5081769;28;20239;-71
2023/05/07 08:23:35;;;;;;;2.15;2.05;;;;;;;;;;5081634;28;20200;-71
2023/05/07 08:26:01;;;;;;;3.80;2.10;;;;;;;;;;5081969;28;20506;-71
2023/05/07 08:28:27;;;;;;;4.25;2.60;;;;;;;;;;5081773;28;20532;-71
2023/05/07 08:30:56;;;;;;;2.67;2.30;;;;;;;;;;5081832;28;20248;-71
2023/05/07 08:33:22;;;;;;;4.03;2.40;;;;;;;;;;5081653;28;20204;-71
2023/05/07 08:35:48;;;;;;;2.20;2.10;;;;;;;;;;5081848;28;20205;-71
2023/05/07 08:38:15;;;;;;;2.28;2.10;;;;;;;;;;5081991;28;20205;-71
2023/05/07 08:40:41;;;;;;;3.88;2.13;;;;;;;;;;5081721;28;20204;-71
2023/05/07 08:43:08;;;;;;;2.30;2.10;;;;;;;;;;5081785;28;20223;-71
2023/05/07 08:45:35;;;;;;;3.80;2.17;;;;;;;;;;5081785;28;20441;-71
2023/05/07 08:48:04;;;;;;;2.35;1.85;;;;;;;;;;5081630;28;20228;-71
2023/05/07 08:50:30;;;;;;;4.47;1.98;;;;;;;;;;5082803;28;20246;-71
2023/05/07 08:52:57;;;;;;;2.92;1.77;;;;;;;;;;5085910;28;20196;-71
2023/05/07 08:55:24;;;;;;;2.42;2.22;;;;;;;;;;5085860;28;20200;-71
2023/05/07 08:57:52;;;;;;;2.55;2.10;;;;;;;;;;5085841;28;20500;-71
2023/05/07 09:00:18;;;;;;;2.05;1.95;;;;;;;;;;5085339;28;20237;-71
2023/05/07 09:02:44;;;;;;;3.00;1.80;;;;;;;;;;5085471;28;20196;-71
2023/05/07 09:05:12;;;;;;;4.18;2.55;;;;;;;;;;5085496;28;20250;-72
2023/05/07 09:07:38;;;;;;;3.28;1.83;;;;;;;;;;5085516;28;20204;-72
2023/05/07 09:10:05;;;;;;;2.70;2.17;;;;;;;;;;5085448;28;20200;-72
2023/05/07 09:12:31;;;;;;;1.88;1.77;;;;;;;;;;5085454;28;20210;-71
2023/05/07 09:14:58;;;;;;;2.00;1.90;;;;;;;;;;5085349;28;20237;-71
2023/05/07 09:17:24;;;;;;;1.98;1.85;;;;;;;;;;5085178;28;20200;-71
2023/05/07 09:19:50;;;;;;;2.60;2.08;;;;;;;;;;5076967;28;20230;-71
2023/05/07 09:22:18;;;;;;;1.70;1.60;;;;;;;;;;5085458;28;20206;-71
2023/05/07 09:24:48;;;;;;;2.50;2.30;;;;;;;;;;5085113;28;20204;-71
2023/05/07 09:27:14;;;;;;;2.35;1.85;;;;;;;;;;5085208;28;20223;-71
2023/05/07 09:29:40;;;;;;;3.10;2.10;;;;;;;;;;5084698;28;20220;-71
2023/05/07 09:32:06;;;;;;;4.93;1.80;;;;;;;;;;5085208;28;20208;-71
2023/05/07 09:34:33;;;;;;;3.63;1.90;;;;;;;;;;5085111;28;20245;-71
2023/05/07 09:36:59;;;;;;;1.92;1.90;;;;;;;;;;5085066;28;20196;-71
2023/05/07 09:39:27;;;;;;;4.25;1.75;;;;;;;;;;5084860;28;20429;-71
2023/05/07 09:41:54;;;;;;;7.47;6.70;;;;;;;;;;5085347;28;20200;-71
2023/05/07 09:44:21;;;;;;;3.67;2.30;;;;;;;;;;5084909;28;20196;-71
2023/05/07 09:46:47;;;;;;;2.67;1.42;;;;;;;;;;5084379;28;20196;-71
2023/05/07 09:49:20;;;;;;;2.60;1.55;;;;;;;;;;5084691;28;20585;-71
2023/05/07 09:51:48;;;;;;;1.90;1.80;;;;;;;;;;5084741;28;20416;-71
2023/05/07 09:54:14;;;;;;;2.10;1.45;;;;;;;;;;5084715;28;20200;-71
2023/05/07 09:56:43;;;;;;;1.70;1.60;;;;;;;;;;5084490;28;20226;-71
2023/05/07 09:59:11;;;;;;;1.75;1.33;;;;;;;;;;5084389;28;20504;-71
2023/05/07 10:01:37;;;;;;;2.20;1.30;;;;;;;;;;5083684;28;20246;-71
2023/05/07 10:04:04;;;;;;;2.55;1.50;;;;;;;;;;5084553;28;20246;-71
2023/05/07 10:06:31;;;;;;;1.20;1.20;;;;;;;;;;5084414;28;20211;-71
2023/05/07 10:08:57;;;;;;;1.13;1.10;;;;;;;;;;5084203;28;20223;-71
2023/05/07 10:11:23;;;;;;;2.15;1.83;;;;;;;;;;5084126;28;20200;-71
2023/05/07 10:13:53;;;;;;;1.70;1.42;;;;;;;;;;5083924;28;20204;-71
2023/05/07 10:16:19;;;;;;;2.80;1.40;;;;;;;;;;5084360;28;20204;-71
2023/05/07 10:18:46;;;;;;;1.50;1.40;;;;;;;;;;5084112;28;20223;-71
2023/05/07 10:21:18;;;;;;;1.88;1.77;;;;;;;;;;5083872;28;20200;-71
2023/05/07 10:23:45;;;;;;;3.28;1.80;;;;;;;;;;5084160;28;20199;-71
2023/05/07 10:26:13;;;;;;;2.63;1.40;;;;;;;;;;5083926;28;20261;-71
2023/05/07 10:28:40;;;;;;;1.50;1.40;;;;;;;;;;5083711;28;20228;-71
2023/05/07 10:31:17;;;;;;;2.35;1.27;;;;;;;;;;5083914;28;20430;-71
2023/05/07 10:33:45;;;;;;;1.45;1.35;;;;;;;;;;5083841;28;20203;-71
2023/05/07 10:36:11;;;;;;;1.75;1.38;;;;;;;;;;5083850;28;20200;-71
2023/05/07 10:38:38;;;;;;;2.22;1.00;;;;;;;;;;5083651;28;20234;-71
2023/05/07 10:41:05;;;;;;;3.97;1.40;;;;;;;;;;5083015;28;20224;-71
2023/05/07 10:43:41;;;;;;;1.95;1.60;;;;;;;;;;5085070;28;20206;-62
2023/05/07 10:46:11;;;;;;;3.78;3.42;;;;;;;;;;5084631;28;20199;-61
2023/05/07 10:49:06;;;;;;;2.00;1.60;;;;;;;;;;5084997;28;20219;-62
2023/05/07 10:51:33;;;;;;;2.20;1.30;;;;;;;;;;5084683;28;20204;-66
2023/05/07 10:54:18;;;;;;;1.98;1.88;;;;;;;;;;5083566;28;20356;-62
2023/05/07 10:56:44;;;;;;;5.25;1.88;;;;;;;;;;5083237;28;20200;-62
2023/05/07 10:59:31;;;;;;;3.95;1.60;;;;;;;;;;5083372;28;20200;-62
2023/05/07 11:01:58;;;;;;;2.75;1.63;;;;;;;;;;5075321;28;20204;-62
2023/05/07 11:04:26;;;;;;;2.90;1.35;;;;;;;;;;5083558;28;20242;-62
2023/05/07 11:07:12;;;;;;;3.67;1.75;;;;;;;;;;5083669;28;20203;-62
2023/05/07 11:10:01;;;;;;;1.55;1.40;;;;;;;;;;5083574;28;20216;-62
2023/05/07 11:12:42;;;;;;;1.52;1.48;;;;;;;;;;5079212;28;20204;-62
2023/05/07 11:15:09;;;;;;;1.77;1.20;;;;;;;;;;5071884;28;20241;-62
2023/05/07 11:17:36;;;;;;;1.60;1.50;;;;;;;;;;5083415;28;20200;-62
2023/05/07 11:20:04;;;;;;;1.98;1.38;;;;;;;;;;5083412;28;20196;-62
2023/05/07 11:22:39;;;;;;;2.15;1.20;;;;;;;;;;5083381;28;20200;-62
2023/05/07 11:25:06;;;;;;;1.60;1.50;;;;;;;;;;5076517;28;20199;-62
2023/05/07 11:27:33;;;;;;;1.33;1.20;;;;;;;;;;5077034;28;20466;-62
2023/05/07 11:30:00;;;;;;;1.35;1.17;;;;;;;;;;5066562;28;20228;-62
2023/05/07 11:32:28;;;;;;;1.90;1.20;;;;;;;;;;5076810;28;20306;-62
2023/05/07 11:34:54;;;;;;;1.27;1.25;;;;;;;;;;5077258;28;20545;-62
2023/05/07 11:37:23;;;;;;;1.95;1.25;;;;;;;;;;5077281;28;20274;-62
2023/05/07 11:39:54;;;;;;;1.60;1.50;;;;;;;;;;5077134;28;20249;-62
2023/05/07 11:42:26;;;;;;;1.92;1.13;;;;;;;;;;5077507;28;20211;-62
2023/05/07 11:44:52;;;;;;;3.85;1.33;;;;;;;;;;5077468;28;20249;-62
2023/05/07 11:47:19;;;;;;;0.90;0.90;;;;;;;;;;5077331;28;20212;-62
2023/05/07 11:49:47;;;;;;;0.90;0.90;;;;;;;;;;5076786;28;20228;-62
2023/05/07 11:52:14;;;;;;;1.15;1.15;;;;;;;;;;5077333;28;20216;-62
2023/05/07 11:54:41;;;;;;;1.45;1.00;;;;;;;;;;5077542;28;20215;-62
2023/05/07 11:57:08;;;;;;;1.13;1.13;;;;;;;;;;5077629;28;20254;-62
2023/05/07 11:59:39;;;;;;;1.88;1.17;;;;;;;;;;5077620;28;20207;-62
2023/05/07 12:02:06;;;;;;;1.88;1.13;;;;;;;;;;5077564;28;20212;-61
2023/05/07 12:04:32;;;;;;;1.33;1.23;;;;;;;;;;5077587;28;20257;-61
2023/05/07 12:06:59;;;;;;;1.10;1.10;;;;;;;;;;5077016;28;20250;-61
2023/05/07 12:09:25;;;;;;;1.27;1.17;;;;;;;;;;5076806;28;20338;-61
2023/05/07 12:11:53;;;;;;;2.70;1.40;;;;;;;;;;5076945;28;20261;-61
2023/05/07 12:14:20;;;;;;;2.53;1.80;;;;;;;;;;5076922;28;20545;-61
2023/05/07 12:16:46;;;;;;;1.20;1.20;;;;;;;;;;5076825;28;20337;-60
2023/05/07 12:19:13;;;;;;;2.00;1.67;;;;;;;;;;5076904;28;20254;-61
2023/05/07 12:21:39;;;;;;;3.45;1.48;;;;;;;;;;5076606;28;20239;-61
2023/05/07 12:24:06;;;;;;;1.65;1.55;;;;;;;;;;5076953;28;20211;-61
2023/05/07 12:26:32;;;;;;;1.50;1.40;;;;;;;;;;5076773;28;20265;-61
2023/05/07 12:29:00;;;;;;;1.65;1.33;;;;;;;;;;5080523;28;20535;-61
2023/05/07 12:31:26;;;;;;;5.22;1.63;;;;;;;;;;5081799;28;20415;-61
2023/05/07 12:33:52;;;;;;;2.63;1.60;;;;;;;;;;5082129;28;20204;-61
2023/05/07 12:36:19;;;;;;;1.67;1.30;;;;;;;;;;5082000;28;20245;-61
2023/05/07 12:38:45;;;;;;;4.15;1.20;;;;;;;;;;5081714;28;20200;-61
2023/05/07 12:41:12;;;;;;;1.95;1.20;;;;;;;;;;5081830;28;20200;-60
2023/05/07 12:43:38;;;;;;;1.80;1.48;;;;;;;;;;5081620;28;20200;-60
2023/05/07 12:46:06;;;;;;;1.30;1.30;;;;;;;;;;5081980;28;20199;-60
2023/05/07 12:48:33;;;;;;;1.30;1.13;;;;;;;;;;5081914;28;20208;-60
2023/05/07 12:51:00;;;;;;;2.25;1.20;;;;;;;;;;5081480;28;20219;-60
2023/05/07 12:53:27;;;;;;;1.40;1.38;;;;;;;;;;5081827;28;20212;-60
2023/05/07 12:55:55;;;;;;;1.60;1.50;;;;;;;;;;5081723;28;20200;-60
2023/05/07 12:58:24;;;;;;;2.78;1.35;;;;;;;;;;5081678;28;20203;-60
2023/05/07 13:00:50;;;;;;;1.60;1.48;;;;;;;;;;5081514;28;20206;-60
2023/05/07 13:03:26;;;;;;;1.30;1.30;;;;;;;;;;5081806;28;20200;-60
2023/05/07 13:05:52;;;;;;;12.60;2.78;;;;;;;;;;5081562;28;20305;-60
2023/05/07 13:08:28;;;;;;;15.68;3.13;;;;;;;;;;5081573;28;20200;-60
2023/05/07 13:10:54;;;;;;;10.68;3.10;;;;;;;;;;5081119;28;20242;-60
2023/05/07 13:13:20;;;;;;;5.03;2.78;;;;;;;;;;5081758;28;20227;-60
2023/05/07 13:15:47;;;;;;;6.25;3.22;;;;;;;;;;5081783;28;20200;-60
2023/05/07 13:18:13;;;;;;;7.03;3.50;;;;;;;;;;5081849;28;20419;-59
2023/05/07 13:20:41;;;;;;;10.07;2.95;;;;;;;;;;5081200;28;20427;-60
2023/05/07 13:23:07;;;;;;;7.65;3.08;;;;;;;;;;5081417;28;20232;-59
2023/05/07 13:25:33;;;;;;;5.45;2.70;;;;;;;;;;5081381;28;20207;-60
2023/05/07 13:28:00;;;;;;;7.68;2.78;;;;;;;;;;5081535;28;20286;-60
2023/05/07 13:30:26;;;;;;;4.25;2.95;;;;;;;;;;5081163;28;20220;-60
2023/05/07 13:32:52;;;;;;;4.85;2.60;;;;;;;;;;5081174;28;20231;-60
2023/05/07 13:35:19;;;;;;;6.40;2.60;;;;;;;;;;5081260;28;20504;-60
2023/05/07 13:37:48;;;;;;;6.85;2.22;;;;;;;;;;5082721;28;20238;-60
2023/05/07 13:40:14;;;;;;;3.28;1.80;;;;;;;;;;5084609;28;20527;-60
2023/05/07 13:42:41;;;;;;;2.33;1.92;;;;;;;;;;5084859;28;20245;-59
2023/05/07 13:45:08;;;;;;;6.85;1.98;;;;;;;;;;5084827;28;20270;-60
2023/05/07 13:47:34;;;;;;;5.90;2.10;;;;;;;;;;5084795;28;20520;-59
2023/05/07 13:50:00;;;;;;;4.32;2.00;;;;;;;;;;5084386;28;20251;-60
2023/05/07 13:52:26;;;;;;;3.72;2.25;;;;;;;;;;5084683;28;20204;-60
2023/05/07 13:54:54;;;;;;;4.13;1.52;;;;;;;;;;5084491;28;20459;-60
2023/05/07 13:57:21;;;;;;;2.80;1.50;;;;;;;;;;5084843;28;20196;-60
2023/05/07 13:59:47;;;;;;;4.55;1.67;;;;;;;;;;5084530;28;20504;-60
2023/05/07 14:02:13;;;;;;;3.03;1.90;;;;;;;;;;5084462;28;20197;-60
2023/05/07 14:04:39;;;;;;;4.60;2.78;;;;;;;;;;5084441;28;20197;-61
2023/05/07 14:07:06;;;;;;;3.55;2.10;;;;;;;;;;5084641;28;20370;-59
2023/05/07 14:09:32;;;;;;;2.35;1.30;;;;;;;;;;5084138;28;20224;-60
2023/05/07 14:12:00;;;;;;;1.58;1.45;;;;;;;;;;5084459;28;20200;-59
2023/05/07 14:14:26;;;;;;;3.33;1.30;;;;;;;;;;5084216;28;20530;-61
2023/05/07 14:16:52;;;;;;;3.05;1.20;;;;;;;;;;5084298;28;20196;-60
2023/05/07 14:19:18;;;;;;;4.93;1.15;;;;;;;;;;5084059;28;20250;-61
2023/05/07 14:21:45;;;;;;;2.72;1.20;;;;;;;;;;5084318;28;20456;-60
2023/05/07 14:24:11;;;;;;;3.53;1.80;;;;;;;;;;5084592;28;20555;-61
2023/05/07 14:26:38;;;;;;;6.10;1.60;;;;;;;;;;5084452;28;20387;-60
2023/05/07 14:29:05;;;;;;;3.33;1.50;;;;;;;;;;5084363;28;20476;-60
2023/05/07 14:31:32;;;;;;;2.08;1.63;;;;;;;;;;5083520;28;20213;-60
2023/05/07 14:33:59;;;;;;;1.65;1.55;;;;;;;;;;5083636;28;20430;-60
2023/05/07 14:36:25;;;;;;;3.58;1.80;;;;;;;;;;5083531;28;20239;-60
2023/05/07 14:38:52;;;;;;;2.35;1.73;;;;;;;;;;5083732;28;20201;-60
2023/05/07 14:41:18;;;;;;;3.55;1.73;;;;;;;;;;5083454;28;20407;-60
2023/05/07 14:43:49;;;;;;;2.03;1.90;;;;;;;;;;5083320;28;20236;-60